Time;durP1;ratioP1;P1;durP2;ratioP2;P2;SDS_P1;SDS_P2;PMS_P1;PMS_P2;Temp;Humidity;BMP_temperature;BMP_pressure;BME280_temperature;BME280_humidity;BME280_pressure;Samples;Min_cycle;Max_cycle;Signal;HPM_P1;HPM_P2
2023/06/02 04:45:23;;;;;;;7.50;5.93;;;;;;;;;;5116944;27;20923;-86
2023/06/02 04:53:52;;;;;;;8.47;6.13;;;;;;;;;;5139613;27;20299;-86
2023/06/02 05:02:08;;;;;;;9.60;6.63;;;12.20;99.90;;;;;;5137439;27;20273;-84
2023/06/02 05:09:17;;;;;;;7.23;6.53;;;;;;;;;;5138846;27;20279;-83
2023/06/02 05:15:58;;;;;;;7.90;6.67;;;;;;;;;;5077649;28;20539;-84
2023/06/02 05:22:55;;;;;;;7.83;6.03;;;;;;;;;;5141064;27;20636;-82
2023/06/02 05:29:44;;;;;;;7.33;5.87;;;;;;;;;;5079176;28;20569;-83
2023/06/02 05:35:09;;;;;;;7.07;6.13;;;;;;;;;;5139907;27;20275;-83
2023/06/02 05:40:46;;;;;;;13.07;6.57;;;;;;;;;;5140150;27;20283;-83
2023/06/02 05:46:44;;;;;;;6.50;5.80;;;;;;;;;;5139505;27;20290;-84
2023/06/02 05:52:33;;;;;;;11.37;6.07;;;;;;;;;;5138802;27;20287;-87
2023/06/02 05:58:28;;;;;;;7.83;6.00;;;14.20;99.90;;;;;;5097951;28;20275;-87
2023/06/02 06:03:00;;;;;;;8.73;5.40;;;;;;;;;;5076751;27;20889;-87
2023/06/02 06:07:58;;;;;;;7.20;5.43;;;14.50;99.90;;;;;;5123651;27;20769;-81
2023/06/02 06:12:48;;;;;;;7.40;5.70;;;15.00;99.90;;;;;;5137131;27;20744;-87
2023/06/02 06:17:47;;;;;;;7.33;5.43;;;;;;;;;;5097072;28;20373;-86
2023/06/02 06:22:34;;;;;;;10.90;5.40;;;;;;;;;;5115156;27;20345;-86
2023/06/02 06:27:25;;;;;;;10.70;5.23;;;15.70;99.90;;;;;;5135372;27;20289;-80
2023/06/02 06:31:17;;;;;;;10.80;5.60;;;;;;;;;;5135336;27;20284;-81
2023/06/02 06:35:12;;;;;;;7.23;5.00;;;15.60;99.90;;;;;;5135138;27;20270;-82
2023/06/02 06:39:08;;;;;;;8.37;4.57;;;15.80;99.90;;;;;;5124823;27;20280;-83
2023/06/02 06:43:05;;;;;;;10.40;5.40;;;16.20;99.90;;;;;;5128509;27;20282;-81
2023/06/02 06:47:02;;;;;;;5.53;4.60;;;16.20;99.90;;;;;;5136933;27;20286;-82
2023/06/02 06:51:00;;;;;;;7.83;4.97;;;;;;;;;;5136098;27;20285;-86
2023/06/02 06:54:57;;;;;;;11.50;4.87;;;16.40;99.90;;;;;;5136068;27;20301;-83
2023/06/02 06:58:56;;;;;;;7.50;4.63;;;16.50;99.90;;;;;;5137656;27;20278;-83
2023/06/02 07:02:55;;;;;;;9.00;4.77;;;16.70;99.90;;;;;;5135943;27;20274;-81
2023/06/02 07:06:55;;;;;;;7.60;4.87;;;17.10;99.90;;;;;;5135777;27;20291;-83
2023/06/02 07:10:52;;;;;;;6.03;4.17;;;17.30;99.90;;;;;;5138233;27;20272;-82
2023/06/02 07:14:52;;;;;;;7.83;5.33;;;17.60;99.90;;;;;;5137075;27;20268;-81
2023/06/02 07:18:53;;;;;;;13.70;5.07;;;17.80;99.90;;;;;;5135899;27;20284;-82
2023/06/02 07:22:51;;;;;;;19.97;5.47;;;17.80;99.90;;;;;;5136208;27;20267;-81
2023/06/02 07:26:50;;;;;;;7.83;4.90;;;18.20;99.90;;;;;;5136497;27;20293;-82
2023/06/02 07:31:51;;;;;;;6.97;4.77;;;;;;;;;;5075111;28;20271;-81
2023/06/02 07:34:17;;;;;;;7.13;4.70;;;18.20;99.90;;;;;;5075350;28;20222;-81
2023/06/02 07:36:44;;;;;;;10.17;4.90;;;;;;;;;;5077197;28;20188;-86
2023/06/02 07:39:10;;;;;;;11.67;5.10;;;18.50;99.90;;;;;;5074724;28;20169;-87
2023/06/02 07:43:45;;;;;;;9.37;4.70;;;18.60;99.90;;;;;;5128978;27;20278;-88
2023/06/02 07:46:11;;;;;;;6.17;4.33;;;;;;;;;;5094645;28;20243;-86
2023/06/02 07:48:38;;;;;;;10.23;4.97;;;;;;;;;;5095662;28;20200;-87
2023/06/02 07:51:03;;;;;;;6.33;4.80;;;18.50;99.90;;;;;;5094026;28;20228;-87
2023/06/02 07:53:29;;;;;;;10.40;5.53;;;;;;;;;;5095098;28;20173;-87
2023/06/02 07:55:56;;;;;;;5.43;4.20;;;;;;;;;;5095815;28;20702;-87
2023/06/02 07:58:22;;;;;;;6.63;4.50;;;;;;;;;;5096141;28;20203;-87
2023/06/02 08:00:49;;;;;;;6.63;4.40;;;19.10;99.90;;;;;;5098859;28;20204;-87
2023/06/02 08:03:15;;;;;;;9.13;4.50;;;18.90;99.90;;;;;;5103292;28;20271;-87
2023/06/02 08:05:42;;;;;;;8.73;4.40;;;19.00;99.90;;;;;;5096654;28;20215;-87
2023/06/02 08:08:09;;;;;;;8.90;4.30;;;19.50;99.90;;;;;;5093125;28;20197;-87
2023/06/02 08:10:35;;;;;;;7.73;4.77;;;19.70;99.90;;;;;;5093239;28;20198;-87
2023/06/02 08:13:01;;;;;;;7.97;4.33;;;19.90;99.90;;;;;;5093350;28;20173;-87
2023/06/02 08:15:26;;;;;;;10.37;4.50;;;20.10;99.90;;;;;;5092509;28;20256;-87
2023/06/02 08:17:52;;;;;;;9.70;4.40;;;20.30;99.90;;;;;;5094596;28;20194;-87
2023/06/02 08:20:18;;;;;;;7.17;4.23;;;20.40;99.90;;;;;;5076457;28;20181;-84
2023/06/02 08:22:47;;;;;;;8.20;4.50;;;20.60;99.90;;;;;;5073460;28;20211;-83
2023/06/02 08:25:14;;;;;;;13.03;4.70;;;20.80;99.90;;;;;;5073823;28;20169;-84
2023/06/02 08:27:41;;;;;;;6.83;4.00;;;21.00;99.90;;;;;;5076717;28;20198;-83
2023/06/02 08:30:08;;;;;;;8.50;4.07;;;21.20;99.90;;;;;;5091436;28;20639;-84
2023/06/02 08:32:34;;;;;;;8.23;4.00;;;21.30;99.90;;;;;;5092308;28;20189;-85
2023/06/02 08:35:01;;;;;;;7.67;4.87;;;21.30;99.90;;;;;;5076400;28;20528;-83
2023/06/02 08:37:27;;;;;;;8.97;4.60;;;21.40;99.90;;;;;;5071572;28;20702;-83
2023/06/02 08:39:53;;;;;;;8.03;4.97;;;21.50;99.90;;;;;;5071349;28;20184;-82
2023/06/02 08:42:22;;;;;;;8.17;4.43;;;21.70;99.90;;;;;;5072814;28;20201;-82
2023/06/02 08:44:48;;;;;;;7.70;4.80;;;21.90;99.90;;;;;;5072848;28;20311;-82
2023/06/02 08:47:14;;;;;;;6.87;4.57;;;22.00;99.90;;;;;;5071888;28;20193;-84
2023/06/02 08:49:48;;;;;;;5.80;4.47;;;22.10;99.90;;;;;;5073017;28;20172;-84
2023/06/02 08:52:25;;;;;;;6.93;4.37;;;22.30;99.90;;;;;;5072143;28;20221;-83
2023/06/02 08:54:51;;;;;;;6.30;4.37;;;22.70;99.90;;;;;;5072227;28;20180;-85
2023/06/02 08:57:22;;;;;;;6.30;4.67;;;22.60;99.90;;;;;;5074534;28;20285;-84
2023/06/02 08:59:48;;;;;;;5.07;4.47;;;22.80;99.90;;;;;;5079165;28;20155;-86
2023/06/02 09:02:15;;;;;;;6.87;4.40;;;23.00;99.90;;;;;;5060200;28;20201;-90
2023/06/02 09:04:42;;;;;;;7.30;4.37;;;23.20;99.90;;;;;;5061744;28;20166;-90
2023/06/02 09:07:20;;;;;;;6.33;3.97;;;23.30;99.90;;;;;;5058562;28;20195;-84
2023/06/02 09:09:52;;;;;;;5.27;4.00;;;23.40;99.90;;;;;;5059543;28;20208;-84
2023/06/02 09:12:19;;;;;;;5.50;3.83;;;23.50;99.90;;;;;;5061274;28;20178;-84
2023/06/02 09:14:47;;;;;;;9.30;4.30;;;23.80;99.90;;;;;;5064269;28;20219;-84
2023/06/02 09:17:27;;;;;;;7.83;4.70;;;23.90;99.60;;;;;;5079545;28;20579;-84
2023/06/02 09:19:55;;;;;;;9.87;4.37;;;24.00;99.90;;;;;;5060368;28;20179;-83
2023/06/02 09:22:21;;;;;;;9.83;4.37;;;24.20;99.90;;;;;;5060840;28;20683;-85
2023/06/02 09:24:47;;;;;;;7.53;4.47;;;24.40;99.90;;;;;;5060546;28;20170;-85
2023/06/02 09:27:14;;;;;;;7.87;3.87;;;24.70;99.90;;;;;;5060316;28;20259;-85
2023/06/02 09:29:41;;;;;;;6.00;3.90;;;24.90;98.80;;;;;;5059573;28;20263;-85
2023/06/02 09:32:17;;;;;;;6.73;4.00;;;24.90;99.30;;;;;;5063633;28;20197;-87
2023/06/02 09:34:45;;;;;;;5.00;3.80;;;24.90;99.90;;;;;;5063478;28;20182;-87
2023/06/02 09:37:16;;;;;;;10.17;4.13;;;24.90;98.30;;;;;;5060147;28;20201;-85
2023/06/02 09:39:48;;;;;;;6.17;3.90;;;25.00;99.90;;;;;;5058156;28;20179;-84
2023/06/02 09:42:16;;;;;;;9.50;3.37;;;25.00;99.90;;;;;;5062948;28;20212;-84
2023/06/02 09:45:07;;;;;;;4.30;3.40;;;25.10;95.30;;;;;;5082367;28;20294;-84
2023/06/02 09:47:38;;;;;;;6.13;3.20;;;25.20;97.40;;;;;;5066117;28;20269;-84
2023/06/02 09:50:05;;;;;;;10.10;3.30;;;25.30;94.20;;;;;;5058435;28;20664;-84
2023/06/02 09:52:31;;;;;;;4.60;3.07;;;25.50;97.30;;;;;;5058258;28;20548;-87
2023/06/02 09:54:58;;;;;;;7.67;3.33;;;25.60;94.10;;;;;;5063781;28;20193;-87
2023/06/02 09:57:25;;;;;;;2.83;2.53;;;25.60;93.20;;;;;;5061198;28;20230;-84
2023/06/02 09:59:51;;;;;;;6.20;2.63;;;25.70;91.00;;;;;;5062238;28;20177;-85
2023/06/02 10:02:16;;;;;;;4.97;3.50;;;25.80;91.90;;;;;;5080938;28;20238;-84
2023/06/02 10:04:42;;;;;;;3.97;2.73;;;25.90;91.80;;;;;;5077958;28;20268;-86
2023/06/02 10:07:23;;;;;;;6.10;2.47;;;26.00;93.80;;;;;;5075602;28;20280;-81
2023/06/02 10:09:55;;;;;;;4.00;2.90;;;26.20;90.50;;;;;;5062105;28;20244;-82
2023/06/02 10:12:39;;;;;;;2.93;2.37;;;26.40;86.80;;;;;;5077763;28;20614;-82
2023/06/02 10:15:08;;;;;;;3.93;2.77;;;26.70;87.60;;;;;;5079387;28;20179;-81
2023/06/02 10:18:07;;;;;;;10.43;2.97;;;27.00;89.60;;;;;;5078264;28;20662;-80
2023/06/02 10:20:58;;;;;;;4.43;2.77;;;27.10;87.40;;;;;;5073731;28;20325;-82
2023/06/02 10:23:35;;;;;;;3.43;2.40;;;27.40;85.90;;;;;;5058650;28;20206;-81
2023/06/02 10:26:34;;;;;;;7.27;2.93;;;27.50;89.00;;;;;;5060003;28;20179;-81
2023/06/02 10:29:02;;;;;;;4.00;2.37;;;27.70;91.40;;;;;;5060278;28;20184;-79
2023/06/02 10:31:32;;;;;;;5.27;2.53;;;27.80;88.60;;;;;;5062748;28;20193;-81
2023/06/02 10:33:59;;;;;;;5.73;2.73;;;28.00;80.00;;;;;;5061429;28;20200;-79
2023/06/02 10:36:25;;;;;;;7.53;2.80;;;28.10;88.00;;;;;;5078541;28;20196;-79
2023/06/02 10:38:52;;;;;;;4.17;2.50;;;28.30;77.60;;;;;;5084242;28;20165;-80
2023/06/02 10:41:21;;;;;;;4.03;2.60;;;28.20;84.10;;;;;;5067445;28;20331;-81
2023/06/02 10:44:22;;;;;;;6.40;2.80;;;28.20;74.40;;;;;;5061598;28;20189;-80
2023/06/02 10:47:08;;;;;;;3.57;2.50;;;28.30;76.10;;;;;;5060793;28;20740;-78
2023/06/02 10:49:59;;;;;;;9.27;2.97;;;28.60;80.40;;;;;;5060370;28;20290;-79
2023/06/02 10:52:55;;;;;;;3.93;2.83;;;28.90;79.50;;;;;;5058759;28;20177;-79
2023/06/02 10:55:20;;;;;;;5.73;2.87;;;29.00;83.60;;;;;;5059291;28;20197;-80
2023/06/02 10:58:03;;;;;;;4.40;2.97;;;29.20;72.60;;;;;;5057447;28;20204;-80
2023/06/02 11:00:43;;;;;;;7.77;2.93;;;29.00;71.60;;;;;;5059431;28;20191;-81
2023/06/02 11:03:14;;;;;;;4.00;2.60;;;28.90;72.60;;;;;;5061269;28;20218;-83
2023/06/02 11:05:41;;;;;;;7.30;2.80;;;29.00;78.00;;;;;;5059423;28;20542;-82
2023/06/02 11:08:18;;;;;;;4.23;2.60;;;29.10;71.10;;;;;;5056499;28;20288;-82
2023/06/02 11:10:46;;;;;;;8.93;2.87;;;29.20;69.80;;;;;;5064038;28;20217;-82
2023/06/02 11:13:19;;;;;;;3.43;2.50;;;29.40;77.10;;;;;;5074490;28;20638;-84
2023/06/02 11:15:54;;;;;;;3.77;2.87;;;29.60;66.70;;;;;;5080955;28;20162;-83
2023/06/02 11:18:22;;;;;;;8.03;2.77;;;29.10;69.40;;;;;;5080168;28;20200;-84
2023/06/02 11:20:50;;;;;;;3.60;2.80;;;29.10;72.40;;;;;;5085599;28;20203;-82
2023/06/02 11:23:20;;;;;;;5.43;3.03;;;29.10;75.90;;;;;;5080246;28;20199;-82
2023/06/02 11:26:05;;;;;;;6.27;3.17;;;29.00;69.90;;;;;;5079435;28;20272;-81
2023/06/02 11:28:31;;;;;;;4.80;3.07;;;29.30;68.10;;;;;;5079234;28;20188;-80
2023/06/02 11:31:08;;;;;;;4.67;2.30;;;29.80;75.20;;;;;;5079543;28;20222;-81
2023/06/02 11:33:37;;;;;;;4.07;2.70;;;30.20;74.30;;;;;;5078888;28;20266;-81
2023/06/02 11:36:08;;;;;;;4.87;2.87;;;30.50;75.00;;;;;;5080156;28;20176;-81
2023/06/02 11:38:35;;;;;;;5.27;2.93;;;30.60;69.00;;;;;;5080804;28;20185;-81
2023/06/02 11:41:12;;;;;;;7.53;3.00;;;30.60;63.40;;;;;;5082034;28;20170;-80
2023/06/02 11:43:39;;;;;;;4.93;2.80;;;30.60;73.20;;;;;;5066843;28;20235;-79
2023/06/02 11:46:09;;;;;;;4.77;2.53;;;31.40;60.90;;;;;;5078699;28;20193;-81
2023/06/02 11:48:38;;;;;;;8.23;3.13;;;31.40;60.80;;;;;;5080771;28;20177;-80
2023/06/02 11:51:04;;;;;;;6.47;2.97;;;31.60;69.30;;;;;;5081002;28;20174;-80
2023/06/02 11:53:30;;;;;;;5.00;2.80;;;31.80;59.40;;;;;;5081668;28;20240;-78
2023/06/02 11:55:58;;;;;;;4.97;2.80;;;32.20;63.40;;;;;;5063106;28;20276;-82
2023/06/02 11:58:27;;;;;;;9.53;2.70;;;32.20;58.70;;;;;;5060998;28;20203;-82
2023/06/02 12:01:10;;;;;;;8.43;3.00;;;32.20;62.50;;;;;;5063232;28;20209;-80
2023/06/02 12:03:37;;;;;;;4.90;3.10;;;32.60;57.30;;;;;;5070745;28;20213;-84
2023/06/02 12:06:11;;;;;;;4.47;2.77;;;32.80;61.50;;;;;;5080512;28;20239;-83
2023/06/02 12:08:37;;;;;;;5.73;3.00;;;32.90;62.20;;;;;;5079248;28;20313;-84
2023/06/02 12:11:03;;;;;;;6.27;3.13;;;33.10;58.60;;;;;;5083090;28;20173;-79
2023/06/02 12:13:30;;;;;;;6.33;2.70;;;32.90;56.40;;;;;;5080766;28;20182;-83
2023/06/02 12:16:26;;;;;;;5.93;3.00;;;31.40;55.30;;;;;;5081027;28;20192;-81
2023/06/02 12:18:54;;;;;;;6.60;2.77;;;29.50;58.40;;;;;;5079715;28;20180;-82
2023/06/02 12:21:26;;;;;;;6.93;2.90;;;29.70;66.60;;;;;;5079057;28;20270;-81
2023/06/02 12:23:55;;;;;;;5.43;2.63;;;30.60;61.20;;;;;;5079553;28;20177;-83
2023/06/02 12:26:21;;;;;;;4.57;2.63;;;32.00;60.90;;;;;;5067260;28;20246;-80
2023/06/02 12:28:49;;;;;;;4.40;2.47;;;32.10;65.00;;;;;;5071760;28;20204;-80
2023/06/02 12:31:20;;;;;;;5.10;3.17;;;31.40;53.40;;;;;;5082966;28;20176;-81
2023/06/02 12:33:46;;;;;;;6.07;2.83;;;29.70;63.20;;;;;;5067001;28;20195;-77
2023/06/02 12:36:13;;;;;;;4.90;2.67;;;30.10;60.30;;;;;;5062322;28;20184;-78
2023/06/02 12:38:40;;;;;;;5.40;2.87;;;30.70;62.90;;;;;;5063751;28;20238;-78
2023/06/02 12:41:12;;;;;;;4.00;2.80;;;31.60;64.30;;;;;;5063093;28;20176;-79
2023/06/02 12:43:39;;;;;;;3.77;2.70;;;32.30;57.90;;;;;;5075711;28;20552;-80
2023/06/02 12:46:05;;;;;;;5.27;3.07;;;32.70;57.40;;;;;;5079317;28;20183;-77
2023/06/02 12:48:30;;;;;;;4.40;2.70;;;32.60;58.70;;;;;;5083442;28;20594;-83
2023/06/02 12:50:56;;;;;;;4.50;2.87;;;32.40;56.40;;;;;;5081768;28;20177;-84
2023/06/02 12:53:22;;;;;;;3.20;2.90;;;30.50;55.00;;;;;;5072718;28;20181;-82
2023/06/02 12:55:48;;;;;;;7.30;2.80;;;29.10;62.80;;;;;;5072173;28;20188;-81
2023/06/02 12:58:13;;;;;;;4.23;2.63;;;28.80;63.40;;;;;;5077466;28;20201;-82
2023/06/02 13:00:40;;;;;;;7.30;3.03;;;29.80;62.90;;;;;;5077703;28;20708;-80
2023/06/02 13:03:07;;;;;;;5.47;2.97;;;30.90;63.20;;;;;;5078743;28;20200;-83
2023/06/02 13:05:35;;;;;;;3.97;2.93;;;31.90;61.70;;;;;;5078520;28;20530;-85
2023/06/02 13:08:01;;;;;;;4.27;2.90;;;32.40;56.00;;;;;;5075380;28;20204;-85
2023/06/02 13:10:27;;;;;;;7.40;2.63;;;32.60;58.90;;;;;;5068231;28;20176;-86
2023/06/02 13:12:53;;;;;;;7.40;3.13;;;32.60;60.90;;;;;;5080740;28;20548;-84
2023/06/02 13:15:20;;;;;;;5.23;3.03;;;32.80;56.80;;;;;;5076779;28;20184;-82
2023/06/02 13:17:46;;;;;;;7.93;3.17;;;32.80;59.10;;;;;;5064787;28;20201;-83
2023/06/02 13:20:12;;;;;;;4.97;2.87;;;32.90;58.20;;;;;;5064221;28;20217;-83
2023/06/02 13:22:37;;;;;;;4.27;2.80;;;33.00;56.50;;;;;;5064412;28;20212;-81
2023/06/02 13:25:04;;;;;;;4.50;2.80;;;32.90;56.20;;;;;;5063350;28;20174;-82
2023/06/02 13:27:29;;;;;;;3.47;2.80;;;32.50;55.90;;;;;;5076677;28;20217;-84
2023/06/02 13:29:55;;;;;;;7.03;3.00;;;31.40;54.80;;;;;;5060822;28;20192;-83
2023/06/02 13:32:21;;;;;;;4.23;2.90;;;30.40;56.80;;;;;;5060928;28;20652;-82
2023/06/02 13:34:57;;;;;;;3.47;2.67;;;29.90;62.90;;;;;;5060364;28;20189;-81
2023/06/02 13:37:24;;;;;;;4.33;2.93;;;30.40;58.30;;;;;;5058758;28;20209;-79
2023/06/02 13:39:51;;;;;;;3.90;3.17;;;30.70;58.70;;;;;;5062055;28;20191;-79
2023/06/02 13:42:17;;;;;;;5.73;3.20;;;31.10;56.50;;;;;;5062354;28;20220;-79
2023/06/02 13:44:42;;;;;;;5.50;3.27;;;31.50;65.70;;;;;;5061601;28;20175;-81
2023/06/02 13:47:08;;;;;;;3.47;3.10;;;31.90;62.20;;;;;;5079397;28;20664;-78
2023/06/02 13:49:34;;;;;;;4.43;2.90;;;32.10;54.20;;;;;;5078632;28;20196;-80
2023/06/02 13:52:00;;;;;;;6.73;3.10;;;31.90;58.50;;;;;;5080752;28;20180;-82
2023/06/02 13:54:25;;;;;;;5.67;3.00;;;31.80;56.50;;;;;;5070243;28;20658;-82
2023/06/02 13:56:51;;;;;;;5.33;2.90;;;31.90;56.20;;;;;;5058597;28;20243;-83
2023/06/02 13:59:18;;;;;;;6.67;3.30;;;32.00;54.80;;;;;;5059496;28;20576;-80
2023/06/02 14:01:51;;;;;;;3.80;3.20;;;31.60;54.90;;;;;;5069082;28;20268;-81
2023/06/02 14:04:16;;;;;;;3.83;3.20;;;31.60;57.10;;;;;;5068791;28;20193;-78
2023/06/02 14:06:42;;;;;;;4.57;3.40;;;31.40;55.90;;;;;;5069763;28;20235;-83
2023/06/02 14:09:08;;;;;;;6.10;3.87;;;31.30;59.10;;;;;;5067202;28;20181;-81
2023/06/02 14:11:38;;;;;;;4.70;3.33;;;31.10;60.20;;;;;;5066535;28;20254;-81
2023/06/02 14:14:05;;;;;;;7.20;3.50;;;30.70;54.70;;;;;;5069650;28;20582;-81
2023/06/02 14:16:30;;;;;;;4.77;3.27;;;30.50;55.60;;;;;;5066844;28;20197;-82
2023/06/02 14:18:57;;;;;;;11.13;4.23;;;30.40;57.50;;;;;;5062582;28;20177;-79
2023/06/02 14:21:27;;;;;;;5.17;3.70;;;30.50;56.50;;;;;;5062443;28;20185;-79
2023/06/02 14:23:52;;;;;;;6.27;3.83;;;30.30;57.50;;;;;;5068271;28;20230;-80
2023/06/02 14:26:18;;;;;;;6.23;4.00;;;30.60;57.50;;;;;;5060290;28;20799;-81
2023/06/02 14:28:44;;;;;;;6.83;3.70;;;30.50;55.60;;;;;;5063711;28;20184;-84
2023/06/02 14:31:10;;;;;;;5.03;3.80;;;30.60;54.90;;;;;;5065668;28;20176;-81
2023/06/02 14:33:36;;;;;;;6.50;3.37;;;30.70;57.30;;;;;;5062493;28;20663;-78
2023/06/02 14:36:02;;;;;;;8.47;3.63;;;30.90;60.40;;;;;;5061985;28;20191;-85
2023/06/02 14:38:27;;;;;;;4.03;3.60;;;31.00;56.00;;;;;;5059393;28;20225;-84
2023/06/02 14:40:53;;;;;;;5.87;3.50;;;31.00;55.50;;;;;;5060117;28;20187;-85
2023/06/02 14:43:19;;;;;;;4.87;3.47;;;31.20;56.20;;;;;;5060472;28;20216;-84
2023/06/02 14:45:44;;;;;;;5.40;3.80;;;31.50;56.70;;;;;;5061850;28;20178;-85
2023/06/02 14:48:10;;;;;;;4.33;3.57;;;31.50;56.20;;;;;;5059962;28;20738;-85
2023/06/02 14:50:36;;;;;;;3.80;3.50;;;31.50;53.70;;;;;;5060453;28;20552;-85
2023/06/02 14:53:02;;;;;;;6.17;4.20;;;31.50;55.40;;;;;;5061743;28;20205;-84
2023/06/02 14:55:28;;;;;;;9.37;3.63;;;31.50;56.30;;;;;;5062646;28;20178;-85
2023/06/02 14:57:54;;;;;;;7.13;3.70;;;31.20;56.80;;;;;;5060255;28;20265;-85
2023/06/02 15:00:20;;;;;;;5.53;3.80;;;31.00;55.90;;;;;;5061897;28;20211;-85
2023/06/02 15:02:45;;;;;;;7.87;4.23;;;30.70;59.60;;;;;;5060087;28;20204;-86
2023/06/02 15:05:11;;;;;;;4.40;3.80;;;30.70;54.30;;;;;;5060485;28;20261;-86
2023/06/02 15:07:37;;;;;;;8.30;3.90;;;30.60;57.10;;;;;;5060089;28;20226;-85
2023/06/02 15:10:04;;;;;;;8.30;4.60;;;30.30;56.20;;;;;;5060110;28;20657;-85
2023/06/02 15:12:30;;;;;;;5.77;4.50;;;30.10;55.40;;;;;;5059860;28;20187;-86
2023/06/02 15:14:56;;;;;;;7.47;4.73;;;29.60;56.60;;;;;;5062861;28;20245;-86
2023/06/02 15:17:22;;;;;;;6.57;4.00;;;29.10;57.60;;;;;;5079878;28;20194;-86
2023/06/02 15:19:48;;;;;;;6.27;4.00;;;29.00;59.20;;;;;;5080878;28;20179;-85
2023/06/02 15:22:14;;;;;;;5.63;3.57;;;29.10;56.60;;;;;;5081201;28;20535;-85
2023/06/02 15:24:39;;;;;;;5.23;4.30;;;29.30;60.80;;;;;;5083046;28;20173;-85
2023/06/02 15:27:06;;;;;;;4.30;3.90;;;29.30;57.80;;;;;;5083019;28;20193;-85
2023/06/02 15:29:31;;;;;;;7.70;3.97;;;29.10;58.10;;;;;;5081945;28;20184;-85
2023/06/02 15:31:58;;;;;;;6.00;4.47;;;29.10;60.40;;;;;;5082429;28;20189;-85
2023/06/02 15:34:24;;;;;;;6.93;4.43;;;28.90;58.20;;;;;;5081492;28;20276;-85
2023/06/02 15:36:50;;;;;;;6.43;5.23;;;28.80;56.10;;;;;;5085560;28;20204;-85
2023/06/02 15:39:17;;;;;;;6.70;6.00;;;28.80;58.10;;;;;;5086740;28;20189;-85
2023/06/02 15:41:44;;;;;;;4.73;4.23;;;28.70;57.50;;;;;;5084849;28;20222;-85
2023/06/02 15:44:10;;;;;;;5.73;3.87;;;28.50;56.20;;;;;;5080475;28;20200;-85
2023/06/02 15:46:39;;;;;;;6.13;3.90;;;28.20;57.20;;;;;;5080780;28;20200;-85
2023/06/02 15:49:05;;;;;;;6.67;5.73;;;28.00;57.10;;;;;;5081801;28;20178;-85
2023/06/02 15:51:30;;;;;;;4.50;4.00;;;28.00;59.10;;;;;;5080224;28;20183;-85
2023/06/02 15:53:56;;;;;;;9.17;3.73;;;27.80;58.20;;;;;;5082109;28;20195;-85
2023/06/02 15:56:22;;;;;;;6.67;4.00;;;27.10;58.40;;;;;;5079796;28;20186;-85
2023/06/02 15:58:47;;;;;;;4.40;3.97;;;27.10;59.10;;;;;;5079845;28;20236;-84
2023/06/02 16:01:13;;;;;;;7.57;5.23;;;;;;;;;;5079044;28;20190;-84
2023/06/02 16:03:39;;;;;;;4.77;3.90;;;26.60;60.10;;;;;;5088651;28;20240;-84
2023/06/02 16:06:05;;;;;;;5.13;4.60;;;25.80;60.80;;;;;;5083628;28;20175;-84
2023/06/02 16:08:32;;;;;;;4.43;3.87;;;25.80;61.40;;;;;;5084301;28;20183;-84
2023/06/02 16:10:57;;;;;;;6.07;4.00;;;25.70;63.80;;;;;;5086844;28;20208;-84
2023/06/02 16:13:23;;;;;;;7.13;4.07;;;25.60;64.40;;;;;;5085470;28;20642;-85
2023/06/02 16:15:51;;;;;;;5.27;3.60;;;25.50;63.50;;;;;;5082261;28;20603;-85
2023/06/02 16:18:17;;;;;;;4.47;3.97;;;25.20;61.90;;;;;;5082485;28;20201;-84
2023/06/02 16:20:42;;;;;;;8.50;4.17;;;25.10;66.80;;;;;;5082584;28;20229;-84
2023/06/02 16:23:08;;;;;;;5.93;3.83;;;24.90;63.60;;;;;;5083068;28;20337;-83
2023/06/02 16:25:34;;;;;;;6.30;4.33;;;24.70;65.90;;;;;;5082611;28;20177;-84
2023/06/02 16:27:59;;;;;;;5.00;4.10;;;24.40;66.40;;;;;;5082634;28;20196;-84
2023/06/02 16:30:25;;;;;;;6.83;4.07;;;;;;;;;;5082682;28;20186;-83
2023/06/02 16:32:53;;;;;;;6.63;4.27;;;23.80;66.70;;;;;;5083231;28;20218;-83
2023/06/02 16:35:19;;;;;;;8.40;4.40;;;23.50;68.00;;;;;;5083253;28;20202;-84
2023/06/02 16:37:44;;;;;;;6.77;3.97;;;23.20;68.60;;;;;;5084324;28;20196;-84
2023/06/02 16:40:10;;;;;;;7.17;4.43;;;23.00;68.90;;;;;;5082361;28;20550;-84
2023/06/02 16:42:36;;;;;;;8.00;3.83;;;22.80;69.40;;;;;;5083218;28;20206;-84
2023/06/02 16:45:01;;;;;;;5.97;4.30;;;22.70;69.70;;;;;;5083222;28;20185;-84
2023/06/02 16:47:27;;;;;;;6.20;4.60;;;22.60;68.80;;;;;;5082762;28;20205;-85
2023/06/02 16:49:53;;;;;;;7.83;4.80;;;22.40;69.10;;;;;;5082160;28;20179;-85
2023/06/02 17:03:56;;;;;;;8.10;4.57;;;21.90;69.10;;;;;;5140623;27;20274;-86
2023/06/02 17:11:30;;;;;;;6.47;4.40;;;21.70;72.10;;;;;;5156745;27;20279;-86
2023/06/02 17:20:05;;;;;;;7.73;4.50;;;21.60;72.10;;;;;;5143928;27;20275;-85
2023/06/02 17:28:03;;;;;;;7.77;4.53;;;21.30;73.90;;;;;;5136953;27;20291;-85
2023/06/02 17:36:37;;;;;;;13.97;4.40;;;21.00;74.00;;;;;;5144657;27;20291;-85
2023/06/02 17:47:37;;;;;;;5.33;4.03;;;20.70;74.20;;;;;;5116604;27;20373;-84
2023/06/02 18:00:56;;;;;;;6.37;4.23;;;20.40;75.80;;;;;;5140465;27;20268;-84
2023/06/02 18:16:50;;;;;;;6.97;3.90;;;19.80;75.60;;;;;;5139967;27;20782;-85
